TS83 weather

Public forecast

Using degrees Fahrenheit for public forecast. Weather courtesy of forecast.io.

Closest aviation weather report (METAR) to Shell I C Heliport

Closest report is William P Hobby Airport, 7.2 nm (13.4 km) ESE. Retrieved 2020/08/11 23:53 UTC (1 hour ago):

KHOU 112353Z 18013KT 10SM FEW037 FEW250 33/24 A2991 RMK AO2 SLP132 T03280239 10361 20328 58005

Closest aviation forecast (TAF) to Shell I C Heliport

Closest forecast is William P Hobby Airport, 7.2 nm (13.4 km) ESE. Retrieved 2020-08-12 00:22 UTC (34 minutes ago):

TAF KHOU 112320Z 1200/1224 16013KT P6SM SCT045 SCT250 FM120300 17006KT P6SM SCT250 FM120500 VRB04KT P6SM FEW020 FM121500 21008KT P6SM SCT040 FM122000 16011KT P6SM SCT250